San Remo, Italy

11:10 AM CEST on September 01, 2015 (GMT +0200)
Arma di Taggia | | Change Station
CLOSE
Current Station
Personal Weather Station
Location: Taggia, LIGURIA
Elevation: 36 ft
Nearby Weather Stations

Elev 36 ft 43.83 °N, 7.86 °E | Updated 5 seconds ago

Mostly Cloudy
Mostly Cloudy
77.4 °F
Feels Like 79 °F
N
2.5
Wind Variable Wind from South
Gusts 2.5 mph

Today
High -- | Low -- °F
--% Chance of Precip.
Yesterday
High -- | Low -- °F
Precip. -- in
6:51 AM 8:05 PM
Waning Gibbous, 90% visible
Pressure 29.98 in
Visibility 6.2 miles
Clouds Few 5000 ft
Mostly Cloudy 11000 ft
Heat Index 79 °F
Dew Point 66 °F
Humidity 69%
Rainfall 0.00 in
Snow Depth Not available.
UV 3 out of 12
Pollen Not available.
Air Quality Not available.
Flu Activity Not available.
METAR LFMN 010900Z 32008KT 9999 FEW050 BKN110 26/15 Q1015 NOSIG
Pressure 29.98 in
Visibility 6.2 miles
Clouds Few 5000 ft
Mostly Cloudy 11000 ft
Heat Index 79 °F
Dew Point 66 °F
Humidity 69%
Rainfall 0.00 in
Snow Depth Not available.
UV 3 out of 12
Pollen Not available.
Air Quality Not available.
Flu Activity Not available.
METAR LFMN 010900Z 32008KT 9999 FEW050 BKN110 26/15 Q1015 NOSIG

10-Day Weather Forecast

×

Almanac

Astronomy

Sep. 01, 2015 Rise Set
Actual Time
Civil Twilight
Nautical Twilight
Astronomical Twilight
Moon
Length of Visible Light
Length of Day
Tomorrow will be .
, % of the Moon is Illuminated

Today's Extremes

Country Highs Country Lows

Community

WunderPhotos

Upload Photos

1,851,490 photos uploaded!

WunderBlogs® & News

Nearby

Air Quality

  Air Quality AQ Index Pollutant
Not available.

Snow Depth

Station Depth Elevation

Earthquake Activity

City Distance Mag. Time & Date
Minimum magnitude displayed is 2.5.

Coastal Water Temperatures

Place Temperature

Stations

Nearby Weather Stations

Station Location Temp. Windchill Dew Point Humidity Wind Precip. Elev Updated Type